createdAt,value
2019-02-21T00:00:24.219Z,4.40
2019-02-21T00:02:50.306Z,4.30
2019-02-21T00:05:18.845Z,4.30
2019-02-21T00:07:47.272Z,4.20
2019-02-21T00:10:15.720Z,4.20
2019-02-21T00:12:44.171Z,4.30
2019-02-21T00:15:12.607Z,4.30
2019-02-21T00:17:41.032Z,4.20
2019-02-21T00:20:09.464Z,4.20
2019-02-21T00:22:37.888Z,4.20
2019-02-21T00:25:06.463Z,4.20
2019-02-21T00:27:34.959Z,4.20
2019-02-21T00:30:03.861Z,4.30
2019-02-21T00:32:32.281Z,4.20
2019-02-21T00:35:00.701Z,4.20
2019-02-21T00:37:29.148Z,4.20
2019-02-21T00:39:57.566Z,4.20
2019-02-21T00:42:26.010Z,4.20
2019-02-21T00:44:54.426Z,4.20
2019-02-21T00:47:22.888Z,4.20
2019-02-21T00:49:51.353Z,4.20
2019-02-21T00:52:19.789Z,4.20
2019-02-21T00:54:48.235Z,4.30
2019-02-21T00:57:16.712Z,4.30
2019-02-21T00:59:45.149Z,4.30
2019-02-21T01:02:13.569Z,4.30
2019-02-21T01:04:42.007Z,4.30
2019-02-21T01:07:10.503Z,4.40
2019-02-21T01:09:38.934Z,4.40
2019-02-21T01:12:07.360Z,4.40
2019-02-21T01:14:35.764Z,4.40
2019-02-21T01:17:04.251Z,4.40
2019-02-21T01:19:32.686Z,4.40
2019-02-21T01:22:01.110Z,4.40
2019-02-21T01:24:29.542Z,4.40
2019-02-21T01:26:57.953Z,4.30
2019-02-21T01:29:26.478Z,4.30
2019-02-21T01:31:54.941Z,4.30
2019-02-21T01:34:23.355Z,4.30
2019-02-21T01:36:51.785Z,4.30
2019-02-21T01:39:20.321Z,4.30
2019-02-21T01:41:48.814Z,4.30
2019-02-21T01:44:17.255Z,4.30
2019-02-21T01:46:45.746Z,4.30
2019-02-21T01:49:14.175Z,4.30
2019-02-21T01:51:42.648Z,4.40
2019-02-21T01:54:11.075Z,4.40
2019-02-21T01:56:39.536Z,4.30
2019-02-21T01:59:08.028Z,4.40
2019-02-21T02:05:06.987Z,4.40
2019-02-21T02:07:35.405Z,4.40
2019-02-21T02:10:04.345Z,4.40
2019-02-21T02:12:32.761Z,4.40
2019-02-21T02:15:01.174Z,4.40
2019-02-21T02:17:29.887Z,4.50
2019-02-21T02:19:58.408Z,4.50
2019-02-21T02:22:26.928Z,4.40
2019-02-21T02:24:55.341Z,4.40
2019-02-21T02:27:23.785Z,4.40
2019-02-21T02:29:52.242Z,4.40
2019-02-21T02:32:20.722Z,4.40
2019-02-21T02:34:49.142Z,4.40
2019-02-21T02:37:17.614Z,4.40
2019-02-21T02:39:46.081Z,4.40
2019-02-21T02:42:14.597Z,4.30
2019-02-21T02:44:43.210Z,4.40
2019-02-21T02:47:11.661Z,4.40
2019-02-21T02:49:40.078Z,4.30
2019-02-21T02:52:08.508Z,4.30
2019-02-21T02:54:36.926Z,4.20
2019-02-21T02:57:05.341Z,4.20
2019-02-21T02:59:40.835Z,4.20
2019-02-21T03:02:03.999Z,4.20
2019-02-21T03:04:32.552Z,4.20
2019-02-21T03:07:01.226Z,4.20
2019-02-21T03:09:29.675Z,4.20
2019-02-21T03:11:58.093Z,4.20
2019-02-21T03:14:26.549Z,4.20
2019-02-21T03:16:54.970Z,4.20
2019-02-21T03:19:23.513Z,4.20
2019-02-21T03:21:51.931Z,4.30
2019-02-21T03:24:20.382Z,4.40
2019-02-21T03:26:48.827Z,4.40
2019-02-21T03:29:17.260Z,4.40
2019-02-21T03:31:54.494Z,4.40
2019-02-21T03:34:15.846Z,4.50
2019-02-21T03:36:44.270Z,4.50
2019-02-21T03:39:12.721Z,4.50
2019-02-21T03:41:41.178Z,4.50
2019-02-21T03:44:09.644Z,4.40
2019-02-21T03:46:38.086Z,4.50
2019-02-21T03:49:06.538Z,4.60
2019-02-21T03:51:35.007Z,4.50
2019-02-21T03:54:03.479Z,4.50
2019-02-21T03:56:31.955Z,4.40
2019-02-21T03:59:00.362Z,4.40
2019-02-21T04:01:28.830Z,4.30
2019-02-21T04:03:57.335Z,4.30
2019-02-21T04:06:25.815Z,4.20
2019-02-21T04:08:54.350Z,4.10
2019-02-21T04:11:22.837Z,4.10
2019-02-21T04:13:51.342Z,4.10
2019-02-21T04:16:19.813Z,4.10
2019-02-21T04:18:48.232Z,4.10
2019-02-21T04:21:16.666Z,4.20
2019-02-21T04:23:45.085Z,4.20
2019-02-21T04:26:13.688Z,4.30
2019-02-21T04:28:42.102Z,4.30
2019-02-21T04:31:10.821Z,4.40
2019-02-21T04:33:39.290Z,4.40
2019-02-21T04:36:07.791Z,4.40
2019-02-21T04:38:36.248Z,4.40
2019-02-21T04:41:04.673Z,4.40
2019-02-21T04:43:33.150Z,4.50
2019-02-21T04:46:01.633Z,4.50
2019-02-21T04:48:30.112Z,4.50
2019-02-21T04:50:58.534Z,4.60
2019-02-21T04:53:27.866Z,4.60
2019-02-21T04:55:56.345Z,4.60
2019-02-21T04:58:24.783Z,4.60
2019-02-21T05:00:53.208Z,4.70
2019-02-21T05:03:21.661Z,4.70
2019-02-21T05:05:50.153Z,4.70
2019-02-21T05:08:18.592Z,4.70
2019-02-21T05:10:47.148Z,4.70
2019-02-21T05:13:15.673Z,4.70
2019-02-21T05:15:44.117Z,4.70
2019-02-21T05:18:12.554Z,4.70
2019-02-21T05:20:40.981Z,4.70
2019-02-21T05:23:09.441Z,4.80
2019-02-21T05:25:37.857Z,4.70
2019-02-21T05:28:24.122Z,4.80
2019-02-21T05:30:54.189Z,4.70
2019-02-21T05:33:40.650Z,4.70
2019-02-21T05:36:13.644Z,4.70
2019-02-21T05:38:49.354Z,4.70
2019-02-21T05:41:22.542Z,4.70
2019-02-21T05:44:07.964Z,4.60
2019-02-21T05:46:40.603Z,4.70
2019-02-21T05:49:19.489Z,4.60
2019-02-21T05:51:52.508Z,4.60
2019-02-21T05:54:31.657Z,4.70
2019-02-21T05:57:01.758Z,4.60
2019-02-21T05:59:40.787Z,4.60
2019-02-21T06:02:10.842Z,4.60
2019-02-21T06:04:43.857Z,4.70
2019-02-21T06:07:13.935Z,4.60
2019-02-21T06:09:53.181Z,4.70
2019-02-21T06:12:33.523Z,4.70
2019-02-21T06:15:10.052Z,4.70
2019-02-21T06:17:55.266Z,4.60
2019-02-21T06:20:40.474Z,4.50
2019-02-21T06:23:13.337Z,4.50
2019-02-21T06:25:54.507Z,4.40
2019-02-21T06:28:21.970Z,4.30
2019-02-21T06:30:54.530Z,4.20
2019-02-21T06:33:22.970Z,4.20
2019-02-21T06:35:51.414Z,4.20
2019-02-21T06:38:19.905Z,4.00
2019-02-21T06:40:48.354Z,4.00
2019-02-21T06:43:16.826Z,4.00
2019-02-21T06:45:45.231Z,4.00
2019-02-21T06:48:13.675Z,4.10
2019-02-21T06:50:42.089Z,4.00
2019-02-21T06:53:10.645Z,4.00
2019-02-21T06:55:39.062Z,4.00
2019-02-21T06:58:07.482Z,4.00
2019-02-21T07:00:35.926Z,4.00
2019-02-21T07:03:15.230Z,4.00
2019-02-21T07:05:36.800Z,4.00
2019-02-21T07:08:04.654Z,4.00
2019-02-21T07:10:33.083Z,4.00
2019-02-21T07:13:01.515Z,4.00
2019-02-21T07:15:29.944Z,4.00
2019-02-21T07:17:58.402Z,4.00
2019-02-21T07:20:26.821Z,4.10
2019-02-21T07:22:55.282Z,4.20
2019-02-21T07:25:41.661Z,4.30
2019-02-21T07:28:12.557Z,4.30
2019-02-21T07:30:42.780Z,4.40
2019-02-21T07:33:10.383Z,4.50
2019-02-21T07:35:38.801Z,4.50
2019-02-21T07:38:07.219Z,4.60
2019-02-21T07:40:36.508Z,4.60
2019-02-21T07:43:04.905Z,4.60
2019-02-21T07:45:36.061Z,4.70
2019-02-21T07:48:03.499Z,4.80
2019-02-21T07:50:32.134Z,4.90
2019-02-21T07:53:02.645Z,5.00
2019-02-21T07:55:30.705Z,5.10
2019-02-21T07:57:59.129Z,5.20
2019-02-21T08:00:27.662Z,5.20
2019-02-21T08:02:56.078Z,5.30
2019-02-21T08:05:24.494Z,5.20
2019-02-21T08:07:52.927Z,5.30
2019-02-21T08:10:32.791Z,5.30
2019-02-21T08:12:53.433Z,5.50
2019-02-21T08:15:21.713Z,5.60
2019-02-21T08:17:50.168Z,5.80
2019-02-21T08:20:18.581Z,6.10
2019-02-21T08:22:47.015Z,6.20
2019-02-21T08:25:15.433Z,6.30
2019-02-21T08:27:43.886Z,6.60
2019-02-21T08:30:14.540Z,6.70
2019-02-21T08:32:59.841Z,6.80
2019-02-21T08:35:28.667Z,6.80
2019-02-21T08:37:57.354Z,7.00
2019-02-21T08:40:25.806Z,7.00
2019-02-21T08:42:54.228Z,7.20
2019-02-21T08:45:22.646Z,7.10
2019-02-21T08:47:51.084Z,6.90
2019-02-21T08:50:22.169Z,7.00
2019-02-21T08:52:49.660Z,7.00
2019-02-21T08:55:18.109Z,6.80
2019-02-21T08:57:46.513Z,6.80
2019-02-21T09:00:16.083Z,6.80
2019-02-21T09:02:44.563Z,6.80
2019-02-21T09:05:13.644Z,6.70
2019-02-21T09:07:42.090Z,6.60
2019-02-21T09:10:13.525Z,6.40
2019-02-21T09:12:41.952Z,6.20
2019-02-21T09:15:15.479Z,6.10
2019-02-21T09:17:43.894Z,6.10
2019-02-21T09:20:12.554Z,6.20
2019-02-21T09:22:40.993Z,6.30
2019-02-21T09:25:13.704Z,6.40
2019-02-21T09:27:42.144Z,6.50
2019-02-21T09:30:18.198Z,6.70
2019-02-21T09:32:46.762Z,6.90
2019-02-21T09:35:15.312Z,7.10
2019-02-21T09:37:43.776Z,7.50
2019-02-21T09:40:15.395Z,8.00
2019-02-21T09:42:43.813Z,8.30
2019-02-21T09:45:18.979Z,8.30
2019-02-21T09:47:47.462Z,8.10
2019-02-21T09:50:15.916Z,8.20
2019-02-21T09:52:44.433Z,8.10
2019-02-21T09:55:17.194Z,8.00
2019-02-21T09:57:45.619Z,8.00
2019-02-21T10:00:16.188Z,7.80
2019-02-21T10:02:44.606Z,7.70
2019-02-21T10:05:13.052Z,7.70
2019-02-21T10:07:41.490Z,8.00
2019-02-21T10:10:19.067Z,8.20
2019-02-21T10:12:47.491Z,8.50
2019-02-21T10:15:16.788Z,8.40
2019-02-21T10:17:45.234Z,8.40
2019-02-21T10:20:19.299Z,8.10
2019-02-21T10:22:47.709Z,8.10
2019-02-21T10:25:24.395Z,8.40
2019-02-21T10:27:53.689Z,8.50
2019-02-21T10:30:23.453Z,8.80
2019-02-21T10:32:51.954Z,8.90
2019-02-21T10:35:20.387Z,8.70
2019-02-21T10:37:48.793Z,8.50
2019-02-21T10:40:17.289Z,8.30
2019-02-21T10:42:45.709Z,8.10
2019-02-21T10:45:16.174Z,7.90
2019-02-21T10:47:44.713Z,7.80
2019-02-21T10:50:15.483Z,7.80
2019-02-21T10:52:43.947Z,7.80
2019-02-21T10:55:12.516Z,7.90
2019-02-21T10:57:41.101Z,8.00
2019-02-21T11:00:26.863Z,8.00
2019-02-21T11:02:55.610Z,7.90
2019-02-21T11:05:24.000Z,7.90
2019-02-21T11:07:52.411Z,7.80
2019-02-21T11:10:23.503Z,7.80
2019-02-21T11:12:52.024Z,7.70
2019-02-21T11:15:22.689Z,7.60
2019-02-21T11:17:51.187Z,7.60
2019-02-21T11:20:20.386Z,7.70
2019-02-21T11:22:49.050Z,7.90
2019-02-21T11:25:17.472Z,8.10
2019-02-21T11:27:45.953Z,8.40
2019-02-21T11:30:16.708Z,8.70
2019-02-21T11:32:45.161Z,8.70
2019-02-21T11:35:14.326Z,8.50
2019-02-21T11:37:46.595Z,8.60
2019-02-21T11:40:17.578Z,8.60
2019-02-21T11:42:46.242Z,8.60
2019-02-21T11:45:17.566Z,8.50
2019-02-21T11:47:46.123Z,8.50
2019-02-21T11:50:19.158Z,8.40
2019-02-21T11:52:48.047Z,8.60
2019-02-21T11:55:21.444Z,8.70
2019-02-21T11:57:49.962Z,8.50
2019-02-21T12:00:20.992Z,8.50
2019-02-21T12:02:49.456Z,8.40
2019-02-21T12:05:27.861Z,8.30
2019-02-21T12:07:48.121Z,8.30
2019-02-21T12:10:16.578Z,8.50
2019-02-21T12:12:45.124Z,8.70
2019-02-21T12:15:14.731Z,9.00
2019-02-21T12:17:43.460Z,9.30
2019-02-21T12:20:19.056Z,9.70
2019-02-21T12:22:47.910Z,9.80
2019-02-21T12:25:18.172Z,9.90
2019-02-21T12:27:46.749Z,10.00
2019-02-21T12:30:17.826Z,10.10
2019-02-21T12:32:46.378Z,10.20
2019-02-21T12:35:15.159Z,10.30
2019-02-21T12:37:43.622Z,10.50
2019-02-21T12:40:17.257Z,10.40
2019-02-21T12:42:45.776Z,10.30
2019-02-21T12:45:16.916Z,10.60
2019-02-21T12:47:50.691Z,10.50
2019-02-21T12:50:15.630Z,10.30
2019-02-21T12:52:44.141Z,10.30
2019-02-21T12:55:13.435Z,10.50
2019-02-21T12:57:42.126Z,10.50
2019-02-21T13:00:20.995Z,10.60
2019-02-21T13:02:49.470Z,10.60
2019-02-21T13:05:18.163Z,10.70
2019-02-21T13:07:46.615Z,10.40
2019-02-21T13:10:20.536Z,10.40
2019-02-21T13:12:49.015Z,10.10
2019-02-21T13:15:17.516Z,10.20
2019-02-21T13:17:45.965Z,10.40
2019-02-21T13:20:15.065Z,10.40
2019-02-21T13:22:43.766Z,10.20
2019-02-21T13:25:14.023Z,9.90
2019-02-21T13:27:42.541Z,9.90
2019-02-21T13:30:13.641Z,9.80
2019-02-21T13:32:42.153Z,9.60
2019-02-21T13:35:11.176Z,9.40
2019-02-21T13:37:39.822Z,9.30
2019-02-21T13:40:11.460Z,9.30
2019-02-21T13:42:39.911Z,9.50
2019-02-21T13:45:10.099Z,9.40
2019-02-21T13:47:39.354Z,9.20
2019-02-21T13:50:10.730Z,8.90
2019-02-21T13:52:39.242Z,9.00
2019-02-21T13:55:08.090Z,8.90
2019-02-21T13:57:36.665Z,8.80
2019-02-21T14:00:11.069Z,8.80
2019-02-21T14:02:39.608Z,8.90
2019-02-21T14:05:08.301Z,8.80
2019-02-21T14:07:37.419Z,8.60
2019-02-21T14:10:08.650Z,8.70
2019-02-21T14:12:37.112Z,8.60
2019-02-21T14:15:14.961Z,8.60
2019-02-21T14:17:43.466Z,8.70
2019-02-21T14:20:11.977Z,8.90
2019-02-21T14:22:40.499Z,8.90
2019-02-21T14:25:10.303Z,8.90
2019-02-21T14:27:39.013Z,8.90
2019-02-21T14:30:12.867Z,8.90
2019-02-21T14:32:41.297Z,8.90
2019-02-21T14:35:12.385Z,8.70
2019-02-21T14:37:40.871Z,8.80
2019-02-21T14:40:11.192Z,8.90
2019-02-21T14:42:39.840Z,9.00
2019-02-21T14:45:13.998Z,9.00
2019-02-21T14:47:42.424Z,9.10
2019-02-21T14:50:12.167Z,9.20
2019-02-21T14:52:40.686Z,9.10
2019-02-21T14:55:11.452Z,9.20
2019-02-21T14:57:41.179Z,9.10
2019-02-21T15:00:18.220Z,9.00
2019-02-21T15:02:46.643Z,9.00
2019-02-21T15:05:15.648Z,8.90
2019-02-21T15:07:45.136Z,8.90
2019-02-21T15:10:14.269Z,8.80
2019-02-21T15:12:42.696Z,8.70
2019-02-21T15:15:25.357Z,8.70
2019-02-21T15:17:53.865Z,8.60
2019-02-21T15:20:22.372Z,8.50
2019-02-21T15:22:53.178Z,8.40
2019-02-21T15:25:21.081Z,8.30
2019-02-21T15:27:49.514Z,8.20
2019-02-21T15:30:25.006Z,8.20
2019-02-21T15:32:53.463Z,8.10
2019-02-21T15:35:21.901Z,8.20
2019-02-21T15:37:50.354Z,8.20
2019-02-21T15:40:18.876Z,8.20
2019-02-21T15:42:47.382Z,8.10
2019-02-21T15:45:23.597Z,8.10
2019-02-21T15:47:49.052Z,8.10
2019-02-21T15:50:19.745Z,8.00
2019-02-21T15:52:48.062Z,7.90
2019-02-21T15:55:18.253Z,7.80
2019-02-21T15:57:46.703Z,7.70
2019-02-21T16:00:17.160Z,7.60
2019-02-21T16:02:46.784Z,7.60
2019-02-21T16:05:15.327Z,7.50
2019-02-21T16:07:43.992Z,7.50
2019-02-21T16:10:15.072Z,7.50
2019-02-21T16:12:44.190Z,7.50
2019-02-21T16:15:16.159Z,7.50
2019-02-21T16:17:44.089Z,7.50
2019-02-21T16:20:20.370Z,7.60
2019-02-21T16:22:48.876Z,7.60
2019-02-21T16:25:25.023Z,7.70
2019-02-21T16:27:55.373Z,7.60
2019-02-21T16:30:24.107Z,7.60
2019-02-21T16:32:52.548Z,7.60
2019-02-21T16:35:21.017Z,7.60
2019-02-21T16:37:49.550Z,7.60
2019-02-21T16:40:21.146Z,7.60
2019-02-21T16:42:49.630Z,7.60
2019-02-21T16:45:19.598Z,7.60
2019-02-21T16:47:48.017Z,7.60
2019-02-21T16:50:16.553Z,7.60
2019-02-21T16:52:45.050Z,7.60
2019-02-21T16:55:21.319Z,7.50
2019-02-21T16:57:49.997Z,7.40
2019-02-21T17:00:19.794Z,7.20
2019-02-21T17:02:48.254Z,7.20
2019-02-21T17:05:16.764Z,7.10
2019-02-21T17:07:45.346Z,7.10
2019-02-21T17:10:15.871Z,7.00
2019-02-21T17:12:44.300Z,6.90
2019-02-21T17:15:14.724Z,6.80
2019-02-21T17:17:43.146Z,6.80
2019-02-21T17:20:14.642Z,6.80
2019-02-21T17:22:43.069Z,6.80
2019-02-21T17:25:13.928Z,6.70
2019-02-21T17:27:42.542Z,6.70
2019-02-21T17:30:13.796Z,6.60
2019-02-21T17:32:42.213Z,6.60
2019-02-21T17:35:10.705Z,6.60
2019-02-21T17:37:39.139Z,6.50
2019-02-21T17:40:10.459Z,6.40
2019-02-21T17:42:38.894Z,6.40
2019-02-21T17:45:08.510Z,6.40
2019-02-21T17:47:36.944Z,6.50
2019-02-21T17:50:08.285Z,6.60
2019-02-21T17:52:36.702Z,6.70
2019-02-21T17:55:07.573Z,6.80
2019-02-21T17:57:37.009Z,6.80
2019-02-21T18:00:24.135Z,6.90
2019-02-21T18:02:52.550Z,6.90
2019-02-21T18:05:21.051Z,6.90
2019-02-21T18:07:49.462Z,6.90
2019-02-21T18:10:18.441Z,6.90
2019-02-21T18:12:46.852Z,7.00
2019-02-21T18:15:16.235Z,7.00
2019-02-21T18:17:44.689Z,6.90
2019-02-21T18:20:14.479Z,7.00
2019-02-21T18:22:42.892Z,7.00
2019-02-21T18:25:22.974Z,7.00
2019-02-21T18:27:51.386Z,7.00
2019-02-21T18:30:19.841Z,7.00
2019-02-21T18:32:48.245Z,7.00
2019-02-21T18:35:16.757Z,7.00
2019-02-21T18:37:47.671Z,7.00
2019-02-21T18:40:20.923Z,7.00
2019-02-21T18:42:49.963Z,7.00
2019-02-21T18:45:18.476Z,7.00
2019-02-21T18:47:46.889Z,7.00
2019-02-21T18:50:15.517Z,7.00
2019-02-21T18:52:44.740Z,7.00
2019-02-21T18:55:13.318Z,7.00
2019-02-21T18:57:41.737Z,6.90
2019-02-21T19:00:16.419Z,6.90
2019-02-21T19:02:44.983Z,6.80
2019-02-21T19:05:13.415Z,6.70
2019-02-21T19:07:41.910Z,6.60
2019-02-21T19:10:16.339Z,6.50
2019-02-21T19:12:44.749Z,6.40
2019-02-21T19:15:14.642Z,6.40
2019-02-21T19:17:43.146Z,6.30
2019-02-21T19:20:14.005Z,6.30
2019-02-21T19:22:42.455Z,6.20
2019-02-21T19:25:11.814Z,6.10
2019-02-21T19:27:40.233Z,6.10
2019-02-21T19:30:17.520Z,6.10
2019-02-21T19:32:45.939Z,6.10
2019-02-21T19:35:14.831Z,6.10
2019-02-21T19:37:43.264Z,6.20
2019-02-21T19:40:12.031Z,6.10
2019-02-21T19:42:40.503Z,6.10
2019-02-21T19:45:09.698Z,6.10
2019-02-21T19:47:38.132Z,6.10
2019-02-21T19:50:08.555Z,6.10
2019-02-21T19:52:37.119Z,6.10
2019-02-21T19:55:10.298Z,6.00
2019-02-21T19:57:38.801Z,6.00
2019-02-21T20:00:13.170Z,6.00
2019-02-21T20:02:41.674Z,6.00
2019-02-21T20:05:10.343Z,6.00
2019-02-21T20:07:38.845Z,5.90
2019-02-21T20:10:08.494Z,5.90
2019-02-21T20:12:37.070Z,5.90
2019-02-21T20:15:08.133Z,5.90
2019-02-21T20:17:36.586Z,5.90
2019-02-21T20:20:17.167Z,5.90
2019-02-21T20:22:45.597Z,5.90
2019-02-21T20:25:14.367Z,5.80
2019-02-21T20:27:43.459Z,5.90
2019-02-21T20:30:16.753Z,5.90
2019-02-21T20:32:45.210Z,5.90
2019-02-21T20:35:13.725Z,5.90
2019-02-21T20:37:42.179Z,5.90
2019-02-21T20:40:11.542Z,5.90
2019-02-21T20:42:39.993Z,5.90
2019-02-21T20:45:10.735Z,5.90
2019-02-21T20:47:39.178Z,5.90
2019-02-21T20:50:10.684Z,5.90
2019-02-21T20:52:39.419Z,5.90
2019-02-21T20:55:09.907Z,5.90
2019-02-21T20:57:38.354Z,5.90
2019-02-21T21:00:17.569Z,6.00
2019-02-21T21:02:46.033Z,6.00
2019-02-21T21:05:14.918Z,5.90
2019-02-21T21:07:43.438Z,6.00
2019-02-21T21:10:15.911Z,5.90
2019-02-21T21:12:44.431Z,5.90
2019-02-21T21:15:14.981Z,6.00
2019-02-21T21:17:44.841Z,5.90
2019-02-21T21:20:16.988Z,6.00
2019-02-21T21:22:44.759Z,6.00
2019-02-21T21:25:17.779Z,5.90
2019-02-21T21:27:46.226Z,5.90
2019-02-21T21:30:18.025Z,5.90
2019-02-21T21:32:46.503Z,6.00
2019-02-21T21:35:14.942Z,6.00
2019-02-21T21:37:43.465Z,6.00
2019-02-21T21:40:14.584Z,6.00
2019-02-21T21:42:43.022Z,6.00
2019-02-21T21:45:14.090Z,6.00
2019-02-21T21:47:42.506Z,6.00
2019-02-21T21:50:13.669Z,6.00
2019-02-21T21:52:42.100Z,6.00
2019-02-21T21:55:10.536Z,6.00
2019-02-21T21:57:39.044Z,6.10
2019-02-21T22:00:10.534Z,6.00
2019-02-21T22:02:38.989Z,6.00
2019-02-21T22:05:09.236Z,6.10
2019-02-21T22:07:37.763Z,6.10
2019-02-21T22:10:13.230Z,6.00
2019-02-21T22:12:41.677Z,6.00
2019-02-21T22:15:12.592Z,6.10
2019-02-21T22:17:42.171Z,6.00
2019-02-21T22:20:10.905Z,6.00
2019-02-21T22:22:39.334Z,6.10
2019-02-21T22:25:10.217Z,6.10
2019-02-21T22:27:39.526Z,6.10
2019-02-21T22:30:11.304Z,6.10
2019-02-21T22:32:39.716Z,6.10
2019-02-21T22:35:08.389Z,6.10
2019-02-21T22:37:36.802Z,6.10
2019-02-21T22:40:08.302Z,6.10
2019-02-21T22:42:36.737Z,6.10
2019-02-21T22:45:06.098Z,6.10
2019-02-21T22:47:34.536Z,6.10
2019-02-21T22:50:03.043Z,6.10
2019-02-21T22:52:31.467Z,6.10
2019-02-21T22:55:09.243Z,6.10
2019-02-21T22:57:30.094Z,6.20
2019-02-21T22:59:58.794Z,6.20
2019-02-21T23:02:27.953Z,6.20
2019-02-21T23:05:14.661Z,6.10
2019-02-21T23:07:43.262Z,6.20
2019-02-21T23:10:11.760Z,6.20
2019-02-21T23:12:40.197Z,6.20
2019-02-21T23:15:08.787Z,6.20
2019-02-21T23:17:37.230Z,6.20
2019-02-21T23:20:06.097Z,6.20
2019-02-21T23:22:34.533Z,6.20
2019-02-21T23:25:03.166Z,6.20
2019-02-21T23:27:31.674Z,6.20
2019-02-21T23:30:00.273Z,6.20
2019-02-21T23:32:28.813Z,6.20
2019-02-21T23:34:57.727Z,6.20
2019-02-21T23:37:26.207Z,6.20
2019-02-21T23:39:54.686Z,6.20
2019-02-21T23:42:23.233Z,6.20
2019-02-21T23:44:51.666Z,6.20
2019-02-21T23:47:20.122Z,6.20
2019-02-21T23:49:48.559Z,6.20
2019-02-21T23:52:17.112Z,6.20
2019-02-21T23:54:45.560Z,6.20
2019-02-21T23:57:13.974Z,6.20
2019-02-21T23:59:42.423Z,6.20
